BIKF/KEF METAR and TAF weather

Enter ICAO airport designator
Station Type Date Time Source
BIKF METAR 2019/11/18 11:30 UTC NOAA

BIKF 181130Z 10033G47KT 9999 FEW028 OVC140 04/M01 Q1004 R88/CLRD//


Station Type Date Time Source
BIKF Decoded METAR 2019/11/18 11:30 UTC NOAA

Keflavikurflugvollur, Iceland (BIKF) 63-58N 022-36W 54M
Nov 18, 2019 - 06:30 AM EST / 2019.11.18 1130 UTC
Wind: from the E (100 degrees) at 38 MPH (33 KT) gusting to 54 MPH (47 KT):0
Visibility: greater than 7 mile(s):0
Sky conditions: overcast
Temperature: 39 F (4 C)
Dew Point: 30 F (-1 C)
Relative Humidity: 69%
Pressure (altimeter): 29.65 in. Hg (1004 hPa)
ob: BIKF 181130Z 10033G47KT 9999 FEW028 OVC140 04/M01 Q1004 R88/CLRD//
cycle: 11

Station Type Date Time Source
BIKF TAF 2019/11/18 12:20 UTC NOAA

TAF BIKF 181016Z 1812/1912 10030G45KT 9999 FEW020 BKN040 TX05/1815Z TN03/1912Z
BECMG 1813/1815 -RA BKN012 OVC020

Example: see airport list